Talla Bena, Louisiana
Current Conditions -  °F | °C
As of 4:53 AM on Thursday 18 Dec 2014 (Local Time) from KTVR Reporting Station
Overcast Overcast  
Wind Chill: 42°   Ceiling: 4300
Heat Index: 46°   Visibility: 10mi
Dew Point: 40°   Wind: 7mph
Humidity: 79%   Direction: 80°E
Pressure: 30.19"   Gusts: NA
Location:  32.5752°N, 91.2825°W
Report Text: KTVR 181053Z AUTO 08006KT 10SM OVC043 08/04 A3019 RMK AO2 SLP230 T00780044
Loading
Personal Weather Stations






























Interactive Weather Map New forecast layout! Learn more

10-Day Weather Forecast

Advertisements
Track Severe Weather on mobile